Kawaguchi, Japan
Current Conditions -  °F | °C
As of 6:30 PM on Friday 24 Oct 2014 (Local Time) from RJTT Reporting Station
Broken Clouds Broken Clouds  
Wind Chill: 63°   Ceiling: 4000
Heat Index: 63°   Visibility: 6mi
Dew Point: 54°   Wind: 3mph
Humidity: 72%   Direction: 120°ESE
Pressure: 30.15"   Gusts: NA
Location:  35.81°N, 139.73°E
Report Text: RJTT 240930Z 12003KT 9999 BKN040 17/12 Q1021 NOSIG RMK 5SC040 A3017
Loading
Personal Weather Stations






























Interactive Weather Map
Tropical Storm Tracking
New forecast layout! Learn more

10-Day Weather Forecast

Advertisements
Track Severe Weather on mobile